Main page
METAR-TAF:

METAR-TAF

Airports :

Grant County Airport

Silver City, New Mexico, United States

latitude: 32-38N, longitude: 108-09W, elevation: 1659 m

Current weather observation

The report was made 36 minutes ago, at 22:55 UTC
Wind 20 kt from the West with gusts up to 25 kt
Temperature 18°C
Humidity 11%
Pressure 1016 hPa
Visibility: 16.1 km
Clear sky

METAR: KSVC 022255Z AUTO 28020G25KT 10SM CLR 18/M13 A3000 RMK AO2 T01791128

Time: 16:31 (23:31 UTC)


TAF: missing

Weather observations and forecasts of more than 4000 airports (METAR and TAF reports).

The available stations are represented by yellow and red dots on the map.

Hover mouse over dot to see the name of the station.

Then click to see weather observations and forecasts.

To change the map : click on the green buttons with a black cross to zoom in, on the green button with a dash to zoom out, or on the green arrows for adjacent maps.


METAR-TAF: